Time;durP1;ratioP1;P1;durP2;ratioP2;P2;SDS_P1;SDS_P2;PMS_P1;PMS_P2;Temp;Humidity;BMP_temperature;BMP_pressure;BME280_temperature;BME280_humidity;BME280_pressure;Samples;Min_cycle;Max_cycle;Signal;HPM_P1;HPM_P2
2021/05/25 00:01:07;;;;;;;3.37;1.03;;;;;;;11.42;61.04;96479.09;5081597;28;20231;-68
2021/05/25 00:03:33;;;;;;;2.50;1.30;;;;;;;11.54;60.73;96480.31;5078042;28;20393;-66
2021/05/25 00:05:58;;;;;;;1.70;1.03;;;;;;;11.58;60.57;96475.56;5091625;28;20264;-66
2021/05/25 00:08:24;;;;;;;2.40;1.10;;;;;;;11.55;60.30;96475.91;5091381;28;20210;-67
2021/05/25 00:10:49;;;;;;;1.47;1.23;;;;;;;11.44;60.28;96470.09;5090277;28;20186;-65
2021/05/25 00:13:15;;;;;;;3.17;0.90;;;;;;;11.26;60.91;96464.31;5090682;28;20747;-66
2021/05/25 00:15:41;;;;;;;2.20;1.10;;;;;;;11.12;61.36;96466.69;5091268;28;20667;-66
2021/05/25 00:18:06;;;;;;;2.00;0.90;;;;;;;10.97;61.87;96471.03;5090257;28;20200;-67
2021/05/25 00:20:32;;;;;;;4.30;0.90;;;;;;;10.77;61.99;96479.34;5091366;28;20324;-69
2021/05/25 00:22:58;;;;;;;1.23;1.00;;;;;;;10.98;61.72;96462.19;5093059;28;20202;-65
2021/05/25 00:25:24;;;;;;;6.17;1.10;;;;;;;10.97;61.47;96458.75;5060174;28;20178;-67
2021/05/25 00:27:50;;;;;;;1.77;1.03;;;;;;;11.01;61.89;96467.91;5078404;28;20656;-68
2021/05/25 00:30:18;;;;;;;2.70;1.00;;;;;;;10.78;62.96;96478.34;5093111;28;20424;-66
2021/05/25 00:32:44;;;;;;;4.60;1.10;;;;;;;11.05;61.88;96474.44;5085379;28;20433;-65
2021/05/25 00:35:11;;;;;;;4.60;1.00;;;;;;;11.19;61.87;96465.00;5089927;28;20427;-66
2021/05/25 00:37:36;;;;;;;2.70;1.10;;;;;;;11.09;62.14;96471.47;5092152;28;20420;-66
2021/05/25 00:40:04;;;;;;;1.73;1.00;;;;;;;10.97;62.56;96465.78;5095029;28;20454;-66
2021/05/25 00:42:29;;;;;;;1.80;1.07;;;;;;;11.22;62.01;96469.88;5094867;28;20201;-67
2021/05/25 00:44:55;;;;;;;1.73;1.13;;;;;;;11.09;62.52;96468.84;5094890;28;20995;-66
2021/05/25 00:47:27;;;;;;;4.20;1.20;;;;;;;10.45;65.10;96476.69;5092536;28;20212;-66
2021/05/25 00:49:52;;;;;;;1.57;1.10;;;;;;;10.94;63.46;96459.09;5093930;28;20178;-66
2021/05/25 00:52:18;;;;;;;1.10;1.00;;;;;;;10.80;63.91;96465.91;5094030;28;20499;-68
2021/05/25 00:54:43;;;;;;;2.23;1.30;;;;;;;10.69;64.15;96471.53;5093713;28;20196;-66
2021/05/25 00:57:09;;;;;;;1.70;1.17;;;;;;;10.46;64.79;96477.47;5092890;28;20270;-66
2021/05/25 00:59:35;;;;;;;3.93;1.00;;;;;;;10.04;65.43;96473.34;5086712;28;20289;-67
2021/05/25 01:02:00;;;;;;;2.80;1.30;;;;;;;10.18;65.59;96472.66;5077928;28;20183;-67
2021/05/25 01:04:26;;;;;;;2.30;1.10;;;;;;;10.71;63.38;96472.97;5081048;28;20259;-67
2021/05/25 01:06:51;;;;;;;1.63;1.17;;;;;;;10.47;63.73;96471.25;5092476;28;20652;-68
2021/05/25 01:09:17;;;;;;;4.40;1.43;;;;;;;10.11;64.29;96466.44;5094306;28;20194;-68
2021/05/25 01:11:44;;;;;;;2.30;1.20;;;;;;;10.66;62.17;96464.81;5077524;28;20603;-66
2021/05/25 01:14:10;;;;;;;1.87;1.20;;;;;;;10.68;61.71;96468.06;5076052;28;20202;-67
2021/05/25 01:16:35;;;;;;;3.63;1.17;;;;;;;10.19;62.69;96471.66;5093873;28;20504;-67
2021/05/25 01:19:01;;;;;;;4.30;1.00;;;;;;;10.48;62.09;96472.09;5094093;28;20847;-69
2021/05/25 01:21:27;;;;;;;1.67;0.93;;;;;;;10.37;61.68;96465.38;5094092;28;20280;-67
2021/05/25 01:23:54;;;;;;;2.73;1.07;;;;;;;10.56;61.39;96469.44;5087383;28;20947;-67
2021/05/25 01:26:19;;;;;;;1.90;0.90;;;;;;;10.57;61.26;96464.03;5076328;28;20188;-69
2021/05/25 01:28:46;;;;;;;1.27;0.90;;;;;;;10.51;61.59;96472.56;5093880;28;20432;-66
2021/05/25 01:31:14;;;;;;;6.37;1.20;;;;;;;10.41;61.55;96472.75;5076521;28;20229;-67
2021/05/25 01:33:40;;;;;;;4.63;1.20;;;;;;;10.35;61.52;96462.94;5079202;28;20902;-65
2021/05/25 01:36:10;;;;;;;3.07;1.03;;;;;;;10.42;61.56;96458.69;5091321;28;20427;-66
2021/05/25 01:38:36;;;;;;;3.17;1.23;;;;;;;10.57;60.85;96456.19;5081013;28;20431;-66
2021/05/25 01:41:04;;;;;;;2.20;1.17;;;;;;;10.35;61.04;96457.69;5094492;28;20547;-67
2021/05/25 01:43:30;;;;;;;1.80;0.90;;;;;;;10.54;60.67;96451.28;5085495;28;20481;-67
2021/05/25 01:45:55;;;;;;;3.50;1.10;;;;;;;10.35;61.40;96452.47;5092523;28;20416;-67
2021/05/25 01:48:21;;;;;;;4.90;1.33;;;;;;;10.54;60.60;96466.16;5090967;28;20182;-67
2021/05/25 01:50:47;;;;;;;4.90;1.07;;;;;;;10.21;61.37;96471.50;5088744;28;20257;-66
2021/05/25 01:53:18;;;;;;;1.27;0.93;;;;;;;10.18;61.87;96477.06;5092746;28;20204;-65
2021/05/25 01:55:51;;;;;;;1.70;1.07;;;;;;;10.53;60.53;96475.84;5093510;28;20183;-68
2021/05/25 01:58:28;;;;;;;2.90;1.10;;;;;;;10.27;60.80;96471.63;5078407;28;20423;-68
2021/05/25 02:01:05;;;;;;;1.83;0.83;;;;;;;10.24;61.18;96477.19;5094287;28;20531;-67
2021/05/25 02:03:31;;;;;;;2.53;1.20;;;;;;;10.34;60.81;96471.78;5071230;28;20465;-67
2021/05/25 02:05:57;;;;;;;1.90;1.07;;;;;;;10.14;61.23;96466.91;5088126;28;20482;-68
2021/05/25 02:08:24;;;;;;;4.77;1.27;;;;;;;10.13;61.37;96475.78;5093650;28;20423;-68
2021/05/25 02:10:53;;;;;;;2.67;1.30;;;;;;;10.10;60.02;96488.34;5095199;28;20416;-68
2021/05/25 02:13:20;;;;;;;2.50;1.00;;;;;;;10.24;59.79;96498.16;5099425;28;20470;-68
2021/05/25 02:15:48;;;;;;;1.90;1.10;;;;;;;10.21;59.91;96490.63;5105578;28;20415;-68
2021/05/25 02:18:22;;;;;;;3.40;1.20;;;;;;;10.39;59.61;96489.63;5108039;28;20476;-69
2021/05/25 02:20:49;;;;;;;1.50;1.00;;;;;;;10.21;59.80;96489.81;5099228;28;21037;-68
2021/05/25 02:23:15;;;;;;;2.10;1.07;;;;;;;10.26;59.27;96471.81;5092327;28;20463;-70
2021/05/25 02:25:41;;;;;;;2.13;1.00;;;;;;;10.32;59.21;96462.47;5083111;28;20417;-68
2021/05/25 02:28:08;;;;;;;2.33;0.80;;;;;;;9.98;60.13;96475.63;5095613;28;20423;-69
2021/05/25 02:30:35;;;;;;;3.90;1.30;;;;;;;9.74;60.10;96476.47;5075060;28;20406;-68
2021/05/25 02:33:01;;;;;;;1.00;0.90;;;;;;;10.04;59.36;96483.81;5079955;28;20440;-67
2021/05/25 02:35:27;;;;;;;4.40;1.23;;;;;;;10.25;59.09;96501.59;5090737;28;20473;-69
2021/05/25 02:37:53;;;;;;;4.63;1.00;;;;;;;10.11;59.56;96510.94;5070669;28;20434;-66
2021/05/25 02:40:19;;;;;;;4.80;1.40;;;;;;;10.05;59.76;96511.63;5091772;28;20197;-66
2021/05/25 02:42:44;;;;;;;1.60;0.90;;;;;;;9.53;61.15;96516.22;5092567;28;20581;-66
2021/05/25 02:45:11;;;;;;;10.83;1.40;;;;;;;9.51;61.60;96510.31;5075861;28;20232;-71
2021/05/25 02:47:36;;;;;;;2.57;1.10;;;;;;;9.84;60.32;96516.38;5100325;28;20860;-66
2021/05/25 02:50:07;;;;;;;4.13;1.17;;;;;;;9.40;61.90;96521.91;5084355;28;20463;-65
2021/05/25 02:52:38;;;;;;;2.10;1.17;;;;;;;9.68;61.57;96519.81;5100533;28;20269;-66
2021/05/25 02:55:09;;;;;;;1.53;0.90;;;;;;;9.85;59.79;96525.03;5099152;28;20528;-66
2021/05/25 02:57:34;;;;;;;2.63;0.90;;;;;;;9.39;61.33;96517.66;5094746;28;20427;-66
2021/05/25 03:00:01;;;;;;;2.40;0.80;;;;;;;9.89;59.55;96517.69;5082764;28;20458;-67
2021/05/25 03:02:27;;;;;;;4.23;1.00;;;;;;;9.94;59.36;96529.31;5087607;28;20200;-65
2021/05/25 03:04:53;;;;;;;3.27;1.20;;;;;;;9.49;60.81;96517.50;5083764;28;20783;-66
2021/05/25 03:07:18;;;;;;;3.53;1.17;;;;;;;9.30;61.16;96503.78;5091187;28;20910;-67
2021/05/25 03:09:44;;;;;;;3.00;0.97;;;;;;;9.68;60.13;96498.91;5092224;28;20424;-67
2021/05/25 03:12:09;;;;;;;2.80;1.07;;;;;;;9.36;61.72;96510.16;5079346;28;20587;-66
2021/05/25 03:14:35;;;;;;;3.40;1.10;;;;;;;9.60;60.69;96501.50;5076492;28;20211;-67
2021/05/25 03:17:01;;;;;;;2.10;0.90;;;;;;;9.18;61.70;96507.69;5092211;28;20684;-67
2021/05/25 03:19:35;;;;;;;4.10;1.00;;;;;;;9.55;60.91;96505.56;5090873;28;20239;-66
2021/05/25 03:22:01;;;;;;;3.77;1.10;;;;;;;9.55;60.55;96506.41;5074856;28;20226;-66
2021/05/25 03:24:27;;;;;;;3.07;1.10;;;;;;;8.89;62.97;96520.16;5082434;28;20926;-66
2021/05/25 03:26:52;;;;;;;3.47;0.90;;;;;;;9.51;60.71;96518.97;5075932;28;20272;-67
2021/05/25 03:29:18;;;;;;;2.70;1.10;;;;;;;8.84;63.02;96519.00;5079805;28;20232;-66
2021/05/25 03:31:44;;;;;;;6.10;1.37;;;;;;;9.29;61.70;96523.06;5078004;28;20173;-67
2021/05/25 03:34:09;;;;;;;2.30;1.07;;;;;;;9.55;60.92;96524.72;5072205;28;20216;-66
2021/05/25 03:36:35;;;;;;;2.50;1.00;;;;;;;9.38;61.24;96527.31;5070855;28;20170;-67
2021/05/25 03:39:01;;;;;;;1.73;0.87;;;;;;;9.50;61.26;96533.06;5070078;28;20193;-67
2021/05/25 03:41:26;;;;;;;6.20;1.20;;;;;;;9.45;61.50;96513.59;5079634;28;20205;-66
2021/05/25 03:43:52;;;;;;;5.10;1.00;;;;;;;9.35;61.40;96525.00;5070085;28;20206;-66
2021/05/25 03:46:17;;;;;;;1.53;0.70;;;;;;;9.71;60.71;96533.53;5070796;28;20193;-66
2021/05/25 03:48:43;;;;;;;3.40;1.10;;;;;;;9.52;61.19;96531.06;5071007;28;20269;-66
2021/05/25 03:51:09;;;;;;;2.70;0.93;;;;;;;9.44;61.28;96535.50;5070485;28;20187;-67
2021/05/25 03:53:34;;;;;;;1.70;0.97;;;;;;;9.53;61.87;96537.13;5079205;28;20247;-67
2021/05/25 03:58:50;;;;;;;2.23;1.10;;;;;;;9.55;61.10;96529.94;5076221;28;20197;-66
2021/05/25 04:01:22;;;;;;;3.20;0.93;;;;;;;9.43;60.75;96518.16;5079717;28;20455;-65
2021/05/25 04:03:49;;;;;;;2.60;1.10;;;;;;;9.40;61.21;96521.09;5076328;28;20452;-65
2021/05/25 04:06:15;;;;;;;3.90;1.10;;;;;;;9.80;59.93;96511.66;5071591;28;20436;-66
2021/05/25 04:08:41;;;;;;;5.13;0.90;;;;;;;9.48;60.52;96527.16;5070509;28;20493;-66
2021/05/25 04:11:06;;;;;;;2.03;0.83;;;;;;;9.54;60.91;96525.69;5070431;28;20273;-67
2021/05/25 04:13:32;;;;;;;1.70;0.83;;;;;;;9.60;61.22;96530.25;5070358;28;20205;-65
2021/05/25 04:15:58;;;;;;;1.60;0.90;;;;;;;9.23;62.72;96526.28;5069503;28;20251;-67
2021/05/25 04:18:23;;;;;;;2.70;1.10;;;;;;;9.25;62.45;96534.81;5081077;28;20196;-67
2021/05/25 04:20:49;;;;;;;3.10;0.97;;;;;;;9.19;62.33;96540.69;5082752;28;21005;-66
2021/05/25 04:23:15;;;;;;;4.03;1.23;;;;;;;9.48;61.34;96542.84;5068326;28;20221;-67
2021/05/25 04:25:42;;;;;;;2.93;0.97;;;;;;;9.09;62.12;96550.44;5074060;28;20289;-67
2021/05/25 04:28:08;;;;;;;3.00;1.07;;;;;;;9.67;60.52;96557.44;5072294;28;20453;-67
2021/05/25 04:30:34;;;;;;;1.53;0.77;;;;;;;9.95;60.17;96551.88;5078906;28;20637;-66
2021/05/25 04:32:59;;;;;;;2.77;0.87;;;;;;;9.66;60.71;96561.03;5069151;28;20540;-67
2021/05/25 04:35:25;;;;;;;1.87;0.77;;;;;;;9.68;60.63;96574.78;5070355;28;20435;-66
2021/05/25 04:37:51;;;;;;;2.80;0.80;;;;;;;10.14;59.04;96562.97;5070147;28;20263;-65
2021/05/25 04:40:18;;;;;;;2.90;1.00;;;;;;;9.83;60.50;96574.94;5069323;28;20207;-65
2021/05/25 04:42:44;;;;;;;1.67;0.90;;;;;;;9.79;60.04;96578.03;5070382;28;20530;-67
2021/05/25 04:45:10;;;;;;;3.20;1.30;;;;;;;10.19;58.73;96578.19;5078252;28;20504;-66
2021/05/25 04:47:36;;;;;;;2.50;1.00;;;;;;;10.24;58.63;96583.78;5069002;28;20206;-67
2021/05/25 04:50:07;;;;;;;2.30;1.03;;;;;;;10.39;58.05;96583.94;5071801;28;20860;-67
2021/05/25 04:52:33;;;;;;;3.73;0.90;;;;;;;9.83;59.07;96592.41;5075959;28;20251;-67
2021/05/25 04:55:00;;;;;;;1.40;0.83;;;;;;;10.24;57.91;96591.63;5069738;28;20433;-67
2021/05/25 04:57:26;;;;;;;1.27;0.73;;;;;;;10.15;58.06;96585.56;5070227;28;20429;-66
2021/05/25 04:59:52;;;;;;;1.43;0.70;;;;;;;10.05;58.47;96584.94;5069839;28;20966;-65
2021/05/25 05:02:17;;;;;;;0.93;0.70;;;;;;;9.99;57.87;96604.72;5069447;28;20186;-66
2021/05/25 05:04:43;;;;;;;1.00;0.70;;;;;;;10.10;57.80;96585.22;5070033;28;20215;-65
2021/05/25 05:07:10;;;;;;;3.33;0.80;;;;;;;10.21;57.63;96595.38;5070573;28;20208;-67
2021/05/25 05:09:35;;;;;;;1.43;0.60;;;;;;;10.64;55.99;96589.97;5073706;28;20424;-65
2021/05/25 05:12:01;;;;;;;1.57;0.70;;;;;;;10.74;55.75;96595.00;5073294;28;20420;-66
2021/05/25 05:14:27;;;;;;;3.40;0.70;;;;;;;10.36;56.41;96590.31;5072935;28;20679;-65
2021/05/25 05:16:52;;;;;;;2.83;0.87;;;;;;;10.88;55.31;96591.66;5073267;28;20182;-67
2021/05/25 05:19:18;;;;;;;2.10;1.10;;;;;;;10.82;55.03;96604.63;5073185;28;20189;-68
2021/05/25 05:21:43;;;;;;;2.73;1.20;;;;;;;10.40;56.46;96609.16;5066456;28;20684;-68
2021/05/25 05:24:09;;;;;;;2.97;1.20;;;;;;;10.82;55.34;96615.97;5073318;28;20233;-67
2021/05/25 05:26:35;;;;;;;2.63;0.80;;;;;;;10.62;55.71;96615.50;5073398;28;20178;-66
2021/05/25 05:29:00;;;;;;;2.90;0.93;;;;;;;10.98;55.11;96603.75;5052148;28;20183;-66
2021/05/25 05:31:26;;;;;;;2.50;0.87;;;;;;;10.74;55.12;96618.56;5062924;28;20286;-66
2021/05/25 05:33:51;;;;;;;2.70;1.10;;;;;;;11.18;53.98;96605.00;5075939;28;20660;-66
2021/05/25 05:36:18;;;;;;;1.47;0.87;;;;;;;10.21;56.60;96605.84;5087175;28;20194;-67
2021/05/25 05:38:45;;;;;;;3.80;0.80;;;;;;;10.60;56.20;96620.91;5084570;28;20211;-65
2021/05/25 05:41:11;;;;;;;3.80;1.20;;;;;;;10.81;54.99;96619.56;5093553;28;20550;-66
2021/05/25 05:43:37;;;;;;;3.00;0.80;;;;;;;10.25;56.38;96615.00;5076003;28;20520;-66
2021/05/25 05:46:03;;;;;;;3.10;1.13;;;;;;;10.90;54.99;96618.53;5093885;28;20186;-66
2021/05/25 05:48:29;;;;;;;3.10;0.80;;;;;;;11.39;53.62;96610.66;5084829;28;20203;-65
2021/05/25 05:50:54;;;;;;;1.40;0.90;;;;;;;11.34;53.18;96613.78;5083471;28;20231;-66
2021/05/25 05:53:21;;;;;;;1.93;1.20;;;;;;;10.89;53.13;96627.38;5076865;28;20209;-67
2021/05/25 05:55:46;;;;;;;2.27;1.00;;;;;;;11.34;52.75;96619.03;5092620;28;20188;-67
2021/05/25 05:58:13;;;;;;;1.67;0.80;;;;;;;11.22;52.04;96623.84;5076553;28;20786;-66
2021/05/25 06:00:41;;;;;;;1.27;0.80;;;;;;;10.50;53.94;96635.97;5091399;28;20209;-66
2021/05/25 06:03:11;;;;;;;2.47;1.00;;;;;;;10.84;52.73;96624.44;5087478;28;20463;-67
2021/05/25 06:05:37;;;;;;;1.33;0.60;;;;;;;10.60;53.16;96623.50;5093207;28;20416;-67
2021/05/25 06:08:04;;;;;;;7.10;0.97;;;;;;;11.10;52.08;96644.34;5083958;28;20504;-68
2021/05/25 06:10:31;;;;;;;1.63;0.90;;;;;;;11.59;51.32;96642.53;5094072;28;20423;-67
2021/05/25 06:12:57;;;;;;;3.53;0.83;;;;;;;11.80;50.17;96645.34;5092695;28;20813;-66
2021/05/25 06:15:22;;;;;;;2.50;1.07;;;;;;;11.26;51.10;96629.56;5091942;28;20427;-67
2021/05/25 06:17:48;;;;;;;1.00;0.60;;;;;;;11.71;49.85;96635.06;5093862;28;20522;-66
2021/05/25 06:20:14;;;;;;;1.27;0.80;;;;;;;12.01;49.56;96635.25;5092299;28;20209;-67
2021/05/25 06:22:39;;;;;;;1.83;0.97;;;;;;;11.79;50.05;96633.22;5092899;28;20604;-67
2021/05/25 06:25:06;;;;;;;6.50;0.80;;;;;;;11.97;49.56;96627.69;5091283;28;20182;-67
2021/05/25 06:27:32;;;;;;;3.63;0.70;;;;;;;11.55;50.79;96622.88;5075043;28;20205;-67
2021/05/25 06:29:58;;;;;;;1.67;0.87;;;;;;;11.89;49.50;96634.78;5073608;28;20436;-66
2021/05/25 06:32:23;;;;;;;2.73;0.90;;;;;;;11.88;49.48;96630.53;5083770;28;20637;-67
2021/05/25 06:34:51;;;;;;;2.40;0.70;;;;;;;12.25;48.66;96647.34;5090485;28;20258;-67
2021/05/25 06:37:16;;;;;;;4.00;0.87;;;;;;;11.74;48.95;96650.47;5089304;28;20183;-68
2021/05/25 06:39:42;;;;;;;1.77;0.60;;;;;;;11.80;49.13;96640.09;5088691;28;20427;-67
2021/05/25 06:42:09;;;;;;;4.20;0.80;;;;;;;12.07;47.97;96627.47;5094896;28;20189;-67
2021/05/25 06:44:35;;;;;;;1.30;0.70;;;;;;;12.37;47.87;96648.56;5036587;28;20268;-66
2021/05/25 06:47:01;;;;;;;2.47;0.93;;;;;;;11.67;49.31;96645.91;5087296;28;20427;-67
2021/05/25 06:49:27;;;;;;;2.23;0.80;;;;;;;11.97;48.19;96647.88;5098634;28;20238;-68
2021/05/25 06:51:52;;;;;;;3.00;1.30;;;;;;;11.56;48.88;96656.00;5089080;28;20206;-68
2021/05/25 06:54:18;;;;;;;1.83;0.90;;;;;;;11.87;49.21;96650.72;5096265;28;20213;-68
2021/05/25 06:56:43;;;;;;;2.43;1.10;;;;;;;12.25;48.48;96655.25;5096099;28;20605;-66
2021/05/25 06:59:09;;;;;;;2.67;0.97;;;;;;;12.64;47.38;96651.63;5086011;28;20706;-66
2021/05/25 07:01:35;;;;;;;2.40;0.70;;;;;;;13.19;46.41;96651.41;5086375;28;20213;-66
2021/05/25 07:04:00;;;;;;;3.60;0.80;;;;;;;12.83;46.84;96657.38;5095449;28;20346;-67
2021/05/25 07:06:26;;;;;;;4.23;1.00;;;;;;;12.58;47.00;96665.50;5096354;28;20181;-67
2021/05/25 07:08:51;;;;;;;1.20;0.80;;;;;;;12.75;47.25;96661.69;5097675;28;20181;-67
2021/05/25 07:11:17;;;;;;;1.60;1.00;;;;;;;12.42;48.02;96659.38;5094214;28;20181;-67
2021/05/25 07:13:43;;;;;;;5.03;1.20;;;;;;;12.75;47.02;96656.44;5092209;28;20233;-65
2021/05/25 07:16:10;;;;;;;3.67;1.07;;;;;;;12.05;48.74;96663.59;5074557;28;20186;-68
2021/05/25 07:18:35;;;;;;;2.50;0.60;;;;;;;12.66;46.88;96649.63;5085297;28;20234;-66
2021/05/25 07:21:01;;;;;;;3.50;0.97;;;;;;;12.67;46.77;96647.81;5092238;28;20448;-69
2021/05/25 07:23:27;;;;;;;5.47;1.00;;;;;;;12.45;46.12;96650.31;5091785;28;20200;-68
2021/05/25 07:25:52;;;;;;;1.77;0.80;;;;;;;12.74;44.89;96657.44;5091000;28;20188;-68
2021/05/25 07:28:18;;;;;;;2.03;0.77;;;;;;;13.58;43.47;96652.09;5069016;28;20297;-65
2021/05/25 07:30:46;;;;;;;2.07;0.90;;;;;;;13.03;45.05;96658.47;5076015;28;20182;-67
2021/05/25 07:33:12;;;;;;;1.50;0.90;;;;;;;13.62;43.95;96643.63;5087463;28;20212;-65
2021/05/25 07:35:37;;;;;;;1.30;0.63;;;;;;;13.87;42.78;96663.56;5091410;28;20503;-66
2021/05/25 07:38:03;;;;;;;2.67;1.00;;;;;;;13.83;42.34;96660.50;5089398;28;20276;-67
2021/05/25 07:40:29;;;;;;;3.00;1.10;;;;;;;13.79;42.91;96665.31;5091424;28;20197;-67
2021/05/25 07:42:54;;;;;;;3.63;1.30;;;;;;;13.03;44.29;96661.09;5089805;28;20278;-65
2021/05/25 07:45:20;;;;;;;3.73;0.87;;;;;;;13.41;43.77;96677.81;5091196;28;20556;-66
2021/05/25 07:47:45;;;;;;;6.73;0.93;;;;;;;13.16;43.07;96665.75;5075138;28;20690;-67
2021/05/25 07:50:16;;;;;;;4.20;0.70;;;;;;;12.96;42.96;96681.25;5073720;28;20170;-66
2021/05/25 07:52:50;;;;;;;1.50;0.70;;;;;;;12.88;43.25;96679.50;5078662;28;20181;-66
2021/05/25 07:55:20;;;;;;;3.33;0.90;;;;;;;12.14;43.67;96667.00;5082148;28;20520;-66
2021/05/25 07:57:46;;;;;;;2.20;1.10;;;;;;;12.95;42.92;96679.59;5091161;28;20451;-65
2021/05/25 08:00:13;;;;;;;2.80;0.70;;;;;;;13.03;43.38;96661.09;5091826;28;20455;-67
2021/05/25 08:02:40;;;;;;;3.50;0.93;;;;;;;13.46;42.28;96662.28;5083811;28;20204;-66
2021/05/25 08:05:07;;;;;;;1.80;0.90;;;;;;;13.26;43.23;96677.78;5074970;28;20416;-67
2021/05/25 08:07:33;;;;;;;1.23;0.80;;;;;;;13.96;42.08;96686.97;5091983;28;20927;-67
2021/05/25 08:09:58;;;;;;;1.83;0.73;;;;;;;13.29;42.14;96685.34;5094273;28;20446;-67
2021/05/25 08:12:24;;;;;;;2.30;0.90;;;;;;;13.23;42.18;96675.53;5099491;28;20415;-67
2021/05/25 08:14:51;;;;;;;5.63;0.97;;;;;;;13.55;41.58;96690.13;5094835;28;20201;-66
2021/05/25 08:20:16;;;;;;;3.63;1.30;;;;;;;13.46;41.73;96691.25;5091953;28;20424;-67
2021/05/25 08:23:03;;;;;;;3.67;0.80;;;;;;;13.90;40.82;96694.81;5091758;28;20841;-67
2021/05/25 08:25:31;;;;;;;3.00;1.20;;;;;;;13.48;41.70;96691.88;5091315;28;20411;-66
2021/05/25 08:27:58;;;;;;;7.50;0.90;;;;;;;14.09;40.51;96701.28;5091554;28;20526;-68
2021/05/25 08:30:29;;;;;;;2.10;0.90;;;;;;;13.48;40.62;96710.31;5090487;28;20520;-68
2021/05/25 08:32:55;;;;;;;2.10;0.87;;;;;;;13.05;42.08;96726.66;5088010;28;20447;-66
2021/05/25 08:35:23;;;;;;;2.07;0.90;;;;;;;14.14;40.59;96725.25;5091222;28;20447;-66
2021/05/25 08:37:58;;;;;;;2.50;1.00;;;;;;;14.52;39.68;96730.28;5064765;28;20790;-68
2021/05/25 08:40:24;;;;;;;2.37;1.13;;;;;;;14.32;40.57;96731.91;5080866;28;20571;-67
2021/05/25 08:42:50;;;;;;;1.10;0.70;;;;;;;13.16;42.68;96739.41;5085758;28;20440;-66
2021/05/25 08:45:17;;;;;;;3.10;1.00;;;;;;;13.20;43.13;96739.84;5089598;28;20447;-65
2021/05/25 08:47:44;;;;;;;8.80;1.00;;;;;;;13.36;42.92;96747.56;5083535;28;20423;-66
2021/05/25 08:50:13;;;;;;;2.80;1.00;;;;;;;13.37;42.50;96751.81;5081916;28;20416;-67
2021/05/25 08:52:38;;;;;;;1.80;0.80;;;;;;;13.52;42.80;96751.88;5093520;28;20443;-67
2021/05/25 08:55:08;;;;;;;3.63;1.07;;;;;;;13.98;41.81;96752.63;5094474;28;20432;-67
2021/05/25 08:57:34;;;;;;;1.93;0.80;;;;;;;13.79;42.26;96733.78;5096339;28;20193;-66
2021/05/25 08:59:59;;;;;;;1.90;1.20;;;;;;;13.17;43.06;96759.44;5095845;28;20412;-67
2021/05/25 09:02:25;;;;;;;0.90;0.60;;;;;;;13.66;41.65;96766.03;5087958;28;20323;-67
2021/05/25 09:05:08;;;;;;;1.10;0.90;;;;;;;13.61;41.42;96735.97;5095845;28;20202;-67
2021/05/25 09:07:39;;;;;;;2.70;0.80;;;;;;;13.90;40.56;96763.28;5094994;28;20208;-67
2021/05/25 09:10:08;;;;;;;2.50;0.70;;;;;;;13.82;40.70;96770.28;5094094;28;20450;-67
2021/05/25 09:12:54;;;;;;;2.37;0.70;;;;;;;14.08;40.85;96760.25;5085015;28;20426;-67
2021/05/25 09:15:35;;;;;;;2.67;1.10;;;;;;;13.61;41.55;96776.28;5077498;28;20422;-66
2021/05/25 09:18:09;;;;;;;1.10;0.77;;;;;;;13.74;41.79;96770.38;5096017;28;20454;-65
2021/05/25 09:20:48;;;;;;;2.03;0.70;;;;;;;13.72;41.62;96785.53;5095232;28;20451;-66
2021/05/25 09:23:16;;;;;;;2.50;1.10;;;;;;;13.97;41.35;96787.88;5094913;28;20522;-66
2021/05/25 09:25:52;;;;;;;2.90;0.73;;;;;;;13.81;41.43;96773.09;5093953;28;20476;-66
2021/05/25 09:28:19;;;;;;;1.90;1.03;;;;;;;13.23;42.49;96823.72;5094283;28;20434;-67
2021/05/25 09:30:47;;;;;;;6.03;1.17;;;;;;;14.08;40.92;96791.88;5090487;28;20556;-66
2021/05/25 09:33:14;;;;;;;4.00;1.20;;;;;;;13.46;42.22;96786.00;5075745;28;20495;-67
2021/05/25 09:35:41;;;;;;;4.53;1.30;;;;;;;13.43;42.27;96799.53;5095914;28;20446;-68
2021/05/25 09:38:08;;;;;;;2.23;1.00;;;;;;;13.33;42.79;96797.09;5093203;28;20922;-66
2021/05/25 09:40:34;;;;;;;5.03;1.00;;;;;;;13.30;42.47;96789.56;5094893;28;20462;-67
2021/05/25 09:43:27;;;;;;;2.80;1.27;;;;;;;13.26;42.69;96794.38;5094781;28;20539;-66
2021/05/25 09:46:13;;;;;;;2.00;1.20;;;;;;;13.82;41.37;96777.38;5078688;28;20464;-67
2021/05/25 09:48:41;;;;;;;5.03;1.20;;;;;;;13.54;41.70;96812.25;5084269;28;21000;-66
2021/05/25 09:51:22;;;;;;;3.00;0.90;;;;;;;13.60;41.32;96810.69;5094227;28;20416;-68
2021/05/25 09:53:49;;;;;;;3.90;1.20;;;;;;;13.98;40.69;96792.16;5093630;28;20431;-67
2021/05/25 09:56:32;;;;;;;2.07;1.00;;;;;;;14.23;40.36;96824.28;5094469;28;20447;-66
2021/05/25 09:58:59;;;;;;;3.90;1.43;;;;;;;13.83;40.41;96805.34;5094876;28;20786;-66
2021/05/25 10:01:37;;;;;;;6.10;1.20;;;;;;;13.39;40.72;96792.94;5086902;28;20451;-67
2021/05/25 10:04:14;;;;;;;3.07;1.00;;;;;;;13.96;40.30;96802.88;5092132;28;21076;-68
2021/05/25 10:06:40;;;;;;;4.43;1.07;;;;;;;14.06;40.18;96801.78;5093610;28;20416;-67
2021/05/25 10:09:07;;;;;;;4.43;1.20;;;;;;;14.57;38.95;96796.47;5093885;28;20934;-66
2021/05/25 10:11:32;;;;;;;1.53;0.90;;;;;;;14.19;40.01;96811.63;5094002;28;20487;-66
2021/05/25 10:13:58;;;;;;;2.80;1.20;;;;;;;14.64;39.15;96824.69;5075004;28;20871;-66
2021/05/25 10:16:28;;;;;;;5.10;1.20;;;;;;;14.74;38.90;96804.97;5077512;28;20250;-68
2021/05/25 10:21:39;;;;;;;2.33;1.30;;;;;;;15.02;37.95;96811.28;5080201;28;20463;-69
2021/05/25 10:24:05;;;;;;;3.33;1.30;;;;;;;14.41;39.17;96809.88;5092328;28;20887;-66
2021/05/25 10:26:32;;;;;;;5.83;1.00;;;;;;;15.47;37.18;96808.38;5091552;28;20412;-67
2021/05/25 10:29:03;;;;;;;3.67;1.00;;;;;;;15.27;36.60;96787.13;5093190;28;20480;-67
2021/05/25 10:31:35;;;;;;;8.93;1.10;;;;;;;15.17;36.54;96801.47;5084632;28;20789;-66
2021/05/25 10:34:21;;;;;;;6.97;1.30;;;;;;;14.71;38.33;96804.53;5093047;28;20448;-67
2021/05/25 10:36:54;;;;;;;4.90;1.20;;;;;;;15.02;37.88;96819.19;5091398;28;20455;-67
2021/05/25 10:39:35;;;;;;;2.00;0.80;;;;;;;15.09;37.63;96821.91;5092744;28;20416;-67
2021/05/25 10:42:19;;;;;;;3.93;1.10;;;;;;;14.48;38.50;96823.13;5092731;28;20467;-66
2021/05/25 10:45:04;;;;;;;3.47;1.20;;;;;;;14.68;38.13;96828.63;5092332;28;20497;-66
2021/05/25 10:47:36;;;;;;;6.83;0.97;;;;;;;14.37;38.55;96832.31;5084176;28;20417;-67
2021/05/25 10:53:12;;;;;;;3.30;1.10;;;;;;;14.75;39.62;96842.69;5093669;28;20420;-66
2021/05/25 10:55:40;;;;;;;2.13;1.30;;;;;;;14.80;39.29;96848.25;5093401;28;20762;-68
2021/05/25 10:58:29;;;;;;;5.50;1.10;;;;;;;14.26;40.07;96829.16;5091820;28;20420;-69
2021/05/25 11:00:57;;;;;;;5.03;0.80;;;;;;;14.29;40.78;96860.44;5083513;28;20918;-66
2021/05/25 11:03:23;;;;;;;7.00;2.33;;;;;;;14.95;39.74;96853.44;5059173;28;20467;-65
2021/05/25 11:05:50;;;;;;;9.27;1.90;;;;;;;14.86;39.83;96852.78;5092834;28;20499;-68
2021/05/25 11:08:17;;;;;;;7.83;2.00;;;;;;;14.56;40.55;96852.00;5093195;28;20182;-66
2021/05/25 11:10:57;;;;;;;3.20;1.00;;;;;;;14.26;41.90;96846.81;5091983;28;20432;-65
2021/05/25 11:13:28;;;;;;;2.63;1.23;;;;;;;14.16;44.02;96855.00;5092444;28;20469;-68
2021/05/25 11:16:20;;;;;;;5.40;1.27;;;;;;;13.26;43.56;96860.16;5094103;28;20443;-66
2021/05/25 11:24:45;;;;;;;4.40;1.00;;;;;;;12.63;54.22;96912.88;5084601;28;21404;-68
2021/05/25 11:27:15;;;;;;;4.90;1.10;;;;;;;12.78;52.69;96904.25;5098098;28;20439;-67
2021/05/25 11:29:40;;;;;;;3.87;1.00;;;;;;;13.26;52.00;96902.28;5100136;28;20424;-67
2021/05/25 11:32:12;;;;;;;3.03;0.97;;;;;;;13.79;49.83;96893.59;5086309;28;20801;-68
2021/05/25 11:34:37;;;;;;;2.87;1.00;;;;;;;14.23;46.45;96884.06;5094645;28;20216;-66
2021/05/25 11:37:07;;;;;;;3.23;0.90;;;;;;;14.62;45.37;96890.81;5094118;28;20447;-66
2021/05/25 11:39:34;;;;;;;3.03;0.97;;;;;;;13.99;45.40;96870.19;5069323;28;20182;-67
2021/05/25 11:42:05;;;;;;;3.53;1.10;;;;;;;13.49;45.46;96883.03;5071888;28;20458;-67
2021/05/25 11:44:35;;;;;;;2.27;1.23;;;;;;;13.54;45.44;96904.38;5092551;28;20436;-67
2021/05/25 11:47:05;;;;;;;2.20;1.00;;;;;;;13.55;44.89;96889.38;5093154;28;20439;-68
2021/05/25 11:49:34;;;;;;;4.33;1.23;;;;;;;14.08;43.66;96887.53;5092984;28;20426;-65
2021/05/25 11:52:00;;;;;;;2.23;1.00;;;;;;;13.97;43.77;96880.91;5091505;28;20420;-67
2021/05/25 11:54:28;;;;;;;2.63;1.00;;;;;;;14.45;42.03;96874.41;5092674;28;20437;-67